Time;durP1;ratioP1;P1;durP2;ratioP2;P2;SDS_P1;SDS_P2;PMS_P1;PMS_P2;Temp;Humidity;BMP_temperature;BMP_pressure;BME280_temperature;BME280_humidity;BME280_pressure;Samples;Min_cycle;Max_cycle;Signal;HPM_P1;HPM_P2
2021/10/18 00:00:55;;;;;;;13.18;5.92;;;;;;;3.72;66.57;99894.09;1748669;80;21025;-72
2021/10/18 00:03:21;;;;;;;15.43;6.47;;;;;;;3.74;66.55;99901.97;1760540;81;21013;-72
2021/10/18 00:05:48;;;;;;;13.85;5.67;;;;;;;3.72;66.54;99899.48;1757321;80;20993;-72
2021/10/18 00:08:16;;;;;;;16.73;6.25;;;;;;;3.77;66.51;99893.44;1760210;81;21517;-72
2021/10/18 00:10:42;;;;;;;13.53;6.40;;;;;;;3.84;66.28;99899.57;1748195;80;21046;-72
2021/10/18 00:13:10;;;;;;;9.78;5.42;;;;;;;3.87;66.18;99888.34;1757037;81;21486;-72
2021/10/18 00:15:38;;;;;;;14.33;6.05;;;;;;;3.84;66.22;99884.24;1746274;81;21031;-73
2021/10/18 00:18:06;;;;;;;11.30;6.22;;;;;;;3.82;66.34;99890.91;1748545;81;21041;-71
2021/10/18 00:20:34;;;;;;;11.90;6.15;;;;;;;3.77;66.50;99890.74;1737706;80;21580;-72
2021/10/18 00:23:00;;;;;;;13.65;6.35;;;;;;;3.73;66.69;99882.80;1754438;81;21426;-72
2021/10/18 00:25:27;;;;;;;13.40;6.20;;;;;;;3.74;66.68;99882.59;1761007;80;21539;-72
2021/10/18 00:27:53;;;;;;;14.68;6.80;;;;;;;3.81;66.54;99877.96;1761110;81;21065;-72
2021/10/18 00:30:20;;;;;;;13.62;6.75;;;;;;;3.81;66.60;99880.66;1751762;80;21062;-72
2021/10/18 00:32:46;;;;;;;13.20;6.87;;;;;;;3.80;66.81;99879.00;1745958;81;21046;-72
2021/10/18 00:35:13;;;;;;;12.68;7.08;;;;;;;3.79;67.03;99878.69;1758802;80;21109;-72
2021/10/18 00:37:39;;;;;;;13.93;7.08;;;;;;;3.81;67.25;99883.87;1742160;81;21014;-72
2021/10/18 00:40:07;;;;;;;15.63;7.05;;;;;;;3.84;67.49;99884.77;1758020;80;21057;-72
2021/10/18 00:42:33;;;;;;;13.95;7.22;;;;;;;3.93;67.57;99872.66;1759549;81;21025;-72
2021/10/18 00:45:00;;;;;;;13.40;7.17;;;;;;;4.06;67.46;99877.05;1751501;80;21508;-72
2021/10/18 00:47:27;;;;;;;14.03;7.20;;;;;;;4.10;67.51;99868.30;1732469;81;21011;-72
2021/10/18 00:49:53;;;;;;;17.90;7.85;;;;;;;4.14;67.68;99864.10;1741936;80;21001;-72
2021/10/18 00:52:20;;;;;;;14.20;7.53;;;;;;;4.19;67.73;99865.58;1760592;81;20982;-72
2021/10/18 00:54:47;;;;;;;14.65;7.37;;;;;;;4.24;67.78;99868.95;1757499;80;21009;-72
2021/10/18 00:57:15;;;;;;;12.85;7.10;;;;;;;4.36;67.68;99866.58;1755535;81;21019;-72
2021/10/18 00:59:41;;;;;;;13.35;7.25;;;;;;;4.49;67.46;99873.16;1746970;81;21017;-72
2021/10/18 01:02:07;;;;;;;13.58;6.40;;;;;;;4.58;67.30;99864.20;1732223;81;21040;-72
2021/10/18 01:04:34;;;;;;;14.45;7.35;;;;;;;4.62;67.32;99861.88;1726164;81;21066;-72
2021/10/18 01:07:01;;;;;;;13.65;7.15;;;;;;;4.65;67.32;99860.06;1757889;80;21049;-72
2021/10/18 01:09:27;;;;;;;17.07;9.20;;;;;;;4.69;67.23;99853.16;1755996;81;21009;-72
2021/10/18 01:11:54;;;;;;;19.50;9.75;;;;;;;4.72;67.07;99852.17;1755192;80;21065;-72
2021/10/18 01:14:21;;;;;;;17.48;9.75;;;;;;;4.76;66.99;99849.31;1754722;81;21061;-72
2021/10/18 01:16:47;;;;;;;21.70;10.40;;;;;;;4.84;66.81;99860.30;1753703;80;21025;-73
2021/10/18 01:19:16;;;;;;;16.62;9.38;;;;;;;4.93;66.58;99857.55;1760666;81;21099;-72
2021/10/18 01:21:42;;;;;;;17.07;9.50;;;;;;;4.96;66.42;99847.11;1759462;80;21077;-73
2021/10/18 01:24:09;;;;;;;17.12;9.18;;;;;;;4.95;66.44;99850.88;1757096;81;21031;-73
2021/10/18 01:26:36;;;;;;;18.55;9.10;;;;;;;4.94;66.55;99861.38;1714533;81;21023;-73
2021/10/18 01:29:03;;;;;;;13.83;7.95;;;;;;;4.94;66.62;99852.45;1750096;81;21007;-71
2021/10/18 01:31:30;;;;;;;17.07;8.43;;;;;;;4.94;66.67;99852.45;1741782;80;21147;-71
2021/10/18 01:33:56;;;;;;;;;;;;;;;5.00;66.63;99856.91;1761071;81;21027;-72
2021/10/18 01:36:23;;;;;;;13.30;7.62;;;;;;;5.08;66.47;99855.23;1751343;80;20146;-72
2021/10/18 01:38:49;;;;;;;12.88;7.67;;;;;;;5.04;66.64;99860.80;1760629;81;21033;-72
2021/10/18 01:41:15;;;;;;;;;;;;;;;5.04;66.68;99856.75;1753034;81;21030;-73
2021/10/18 01:43:42;;;;;;;12.28;7.20;;;;;;;5.05;66.71;99862.97;1752735;81;20110;-72
2021/10/18 01:46:08;;;;;;;15.18;8.18;;;;;;;5.00;66.78;99852.86;1753679;80;21537;-72
2021/10/18 01:48:34;;;;;;;13.45;7.37;;;;;;;5.04;66.75;99854.05;1751010;81;21031;-71
2021/10/18 01:51:01;;;;;;;13.65;7.55;;;;;;;5.14;66.58;99856.16;1746029;80;21025;-71
2021/10/18 01:53:27;;;;;;;17.07;7.95;;;;;;;5.19;66.40;99863.87;1756481;81;21049;-72
2021/10/18 01:55:54;;;;;;;12.90;8.38;;;;;;;5.19;66.42;99857.64;1739359;82;21072;-71
2021/10/18 01:58:20;;;;;;;13.85;8.00;;;;;;;5.16;66.43;99862.98;1748163;82;21081;-71
2021/10/18 02:00:46;;;;;;;16.23;7.35;;;;;;;5.17;66.43;99865.98;1747744;81;21082;-71
2021/10/18 02:03:13;;;;;;;13.10;7.20;;;;;;;5.24;66.26;99861.83;1744703;82;21004;-73
2021/10/18 02:05:40;;;;;;;15.55;7.37;;;;;;;5.35;66.06;99862.36;1724566;82;21572;-72
2021/10/18 02:08:07;;;;;;;13.45;8.13;;;;;;;5.37;65.96;99854.84;1741432;82;21063;-73
2021/10/18 02:10:34;;;;;;;15.13;7.10;;;;;;;5.36;65.97;99853.19;1745612;81;21065;-73
2021/10/18 02:13:00;;;;;;;11.28;7.05;;;;;;;5.35;66.01;99848.86;1714465;82;21059;-73
2021/10/18 02:15:27;;;;;;;15.75;7.80;;;;;;;5.36;66.03;99855.88;1747699;81;21721;-74
2021/10/18 02:17:53;;;;;;;12.88;7.20;;;;;;;5.36;65.98;99853.19;1746795;82;21461;-73
2021/10/18 02:20:20;;;;;;;10.38;6.62;;;;;;;5.42;65.83;99855.76;1747060;81;21080;-73
2021/10/18 02:22:46;;;;;;;13.03;6.72;;;;;;;5.53;65.57;99851.97;1743128;82;21500;-73
2021/10/18 02:25:13;;;;;;;12.15;6.53;;;;;;;5.57;65.43;99853.11;1744130;81;21042;-73
2021/10/18 02:27:39;;;;;;;;;;;;;;;5.55;65.42;99844.44;1747047;82;21450;-73
2021/10/18 02:30:08;;;;;;;10.88;6.15;;;;;;;5.55;65.43;99855.23;1738182;81;20110;-73
2021/10/18 02:32:34;;;;;;;17.17;7.08;;;;;;;5.45;65.60;99844.52;1740106;82;20986;-70
2021/10/18 02:35:05;;;;;;;11.85;6.87;;;;;;;5.47;65.56;99845.61;1735550;81;21088;-70
2021/10/18 02:37:31;;;;;;;10.85;6.20;;;;;;;5.46;65.55;99840.73;1745557;82;20975;-70
2021/10/18 02:39:58;;;;;;;11.55;6.25;;;;;;;5.55;65.37;99839.03;1747335;81;21481;-70
2021/10/18 02:42:24;;;;;;;11.68;6.00;;;;;;;5.66;65.11;99835.50;1740273;82;21005;-70
2021/10/18 02:44:50;;;;;;;11.80;6.47;;;;;;;5.71;64.95;99843.17;1743581;81;21504;-71
2021/10/18 02:47:16;;;;;;;12.88;6.42;;;;;;;5.70;65.00;99840.73;1741930;82;21021;-71
2021/10/18 02:49:43;;;;;;;12.20;6.45;;;;;;;5.67;65.05;99844.70;1739635;81;21049;-71
2021/10/18 02:52:09;;;;;;;11.10;6.72;;;;;;;5.66;65.12;99840.91;1746898;82;21005;-71
2021/10/18 02:54:37;;;;;;;11.90;6.45;;;;;;;5.63;65.14;99841.39;1754483;81;21029;-71
2021/10/18 02:57:04;;;;;;;12.37;6.30;;;;;;;5.62;65.17;99846.48;1760839;80;21555;-71
2021/10/18 02:59:33;;;;;;;11.80;5.90;;;;;;;5.65;65.10;99849.53;1759481;81;21069;-71
2021/10/18 03:01:59;;;;;;;9.93;6.17;;;;;;;5.74;64.94;99847.30;1756999;80;21672;-71
2021/10/18 03:04:26;;;;;;;13.48;6.30;;;;;;;5.79;64.81;99842.81;1747729;81;20998;-71
2021/10/18 03:06:52;;;;;;;9.68;5.72;;;;;;;5.78;64.84;99837.64;1755652;80;21050;-71
2021/10/18 03:09:19;;;;;;;10.90;5.80;;;;;;;5.77;64.83;99836.02;1759935;81;21025;-71
2021/10/18 03:11:45;;;;;;;11.28;5.62;;;;;;;5.78;64.83;99841.69;1750214;81;21053;-72
2021/10/18 03:14:12;;;;;;;10.60;5.80;;;;;;;5.76;64.78;99835.19;1760914;81;21037;-71
2021/10/18 03:16:40;;;;;;;10.82;5.60;;;;;;;5.76;64.77;99826.27;1754361;80;21070;-71
2021/10/18 03:19:08;;;;;;;10.40;5.62;;;;;;;5.76;64.73;99833.84;1758365;81;21562;-71
2021/10/18 03:21:34;;;;;;;10.88;5.65;;;;;;;5.78;64.59;99832.23;1758187;80;21049;-71
2021/10/18 03:24:01;;;;;;;;;;;;;;;5.82;64.51;99834.23;1758580;81;21051;-71
2021/10/18 03:26:28;;;;;;;11.55;5.50;;;;;;;5.80;64.60;99835.53;1751757;81;20114;-71
2021/10/18 03:28:54;;;;;;;10.45;5.92;;;;;;;5.71;64.83;99825.62;1761098;81;21505;-71
2021/10/18 03:31:21;;;;;;;13.00;6.40;;;;;;;5.71;64.87;99824.27;1740957;80;21070;-72
2021/10/18 03:33:48;;;;;;;9.15;4.97;;;;;;;5.71;64.90;99821.56;1737676;81;20986;-71
2021/10/18 03:36:15;;;;;;;11.48;5.47;;;;;;;5.70;64.95;99825.87;1760878;80;21552;-71
2021/10/18 03:38:41;;;;;;;9.05;5.45;;;;;;;5.73;64.85;99822.69;1758911;81;20993;-71
2021/10/18 03:41:08;;;;;;;9.55;5.58;;;;;;;5.79;64.63;99823.08;1760735;80;21113;-71
2021/10/18 03:43:34;;;;;;;11.25;5.70;;;;;;;5.77;64.76;99826.04;1760323;81;21025;-71
2021/10/18 03:46:00;;;;;;;11.65;5.40;;;;;;;5.76;64.81;99820.86;1751817;81;21029;-71
2021/10/18 03:48:27;;;;;;;10.60;5.95;;;;;;;5.75;64.77;99813.28;1759588;81;21045;-71
2021/10/18 03:50:54;;;;;;;9.70;5.12;;;;;;;5.76;64.75;99818.16;1761134;80;21056;-71
2021/10/18 03:53:20;;;;;;;10.23;5.00;;;;;;;5.75;64.71;99805.18;1760915;81;21045;-72
2021/10/18 03:55:46;;;;;;;8.13;4.87;;;;;;;5.80;64.59;99804.47;1730334;81;21047;-71
2021/10/18 03:58:12;;;;;;;9.45;5.72;;;;;;;5.85;64.37;99817.54;1731391;82;21006;-72
2021/10/18 04:00:39;;;;;;;12.85;5.75;;;;;;;5.79;64.39;99812.27;1721721;82;21126;-71
2021/10/18 04:03:50;;;;;;;11.60;5.42;;;;;;;5.75;64.59;99820.03;1816489;79;22800;-71
2021/10/18 04:06:17;;;;;;;11.05;5.70;;;;;;;5.68;64.67;99814.47;1762871;80;21571;-71
2021/10/18 04:08:48;;;;;;;9.05;5.80;;;;;;;5.65;64.69;99810.89;1761130;81;21025;-72
2021/10/18 04:11:12;;;;;;;9.65;5.33;;;;;;;5.62;64.75;99814.08;1760554;80;21117;-71
2021/10/18 04:13:38;;;;;;;11.18;5.12;;;;;;;5.66;64.70;99807.14;1761297;81;20997;-72
2021/10/18 04:16:05;;;;;;;10.60;5.67;;;;;;;5.71;64.62;99808.06;1754958;81;21037;-71
2021/10/18 04:18:31;;;;;;;11.48;5.50;;;;;;;5.70;64.71;99810.49;1759892;81;21042;-72
2021/10/18 04:20:59;;;;;;;10.63;5.78;;;;;;;5.70;64.76;99813.72;1761153;80;21663;-72
2021/10/18 04:23:27;;;;;;;9.05;5.83;;;;;;;5.69;64.81;99808.02;1760733;81;21072;-72
2021/10/18 04:25:54;;;;;;;9.80;5.85;;;;;;;5.69;64.83;99814.24;1758970;81;21025;-72
2021/10/18 04:28:21;;;;;;;12.35;6.80;;;;;;;5.68;64.92;99815.81;1744231;81;21479;-72
2021/10/18 04:30:48;;;;;;;12.45;6.40;;;;;;;5.70;64.89;99812.37;1751593;80;21599;-72
2021/10/18 04:33:16;;;;;;;10.63;6.58;;;;;;;5.77;64.72;99814.41;1743579;81;21535;-72
2021/10/18 04:35:42;;;;;;;12.20;6.97;;;;;;;5.81;64.66;99812.88;1761258;80;21124;-72
2021/10/18 04:38:08;;;;;;;11.22;5.62;;;;;;;5.80;64.69;99815.28;1761223;81;21001;-72
2021/10/18 04:40:35;;;;;;;10.88;6.15;;;;;;;5.79;64.73;99814.98;1758275;80;21037;-72
2021/10/18 04:43:01;;;;;;;13.10;6.28;;;;;;;5.77;64.81;99815.76;1759733;81;21049;-71
2021/10/18 04:45:30;;;;;;;11.73;6.28;;;;;;;5.75;64.89;99824.09;1755149;80;21057;-71
2021/10/18 04:47:56;;;;;;;9.50;5.90;;;;;;;5.73;65.00;99830.27;1752328;81;21007;-72
2021/10/18 04:50:23;;;;;;;11.55;5.67;;;;;;;5.71;65.07;99828.84;1761359;80;21069;-72
2021/10/18 04:52:49;;;;;;;12.43;6.17;;;;;;;5.76;64.98;99833.02;1759544;81;21027;-72
2021/10/18 04:55:16;;;;;;;8.58;5.47;;;;;;;5.80;64.96;99836.89;1751193;80;21035;-72
2021/10/18 04:58:01;;;;;;;10.85;5.90;;;;;;;5.78;65.05;99831.71;1718511;83;21068;-73
2021/10/18 05:00:29;;;;;;;9.48;5.50;;;;;;;5.78;65.14;99836.28;1729721;82;21043;-71
2021/10/18 05:02:56;;;;;;;13.30;6.10;;;;;;;5.76;65.23;99838.42;1691126;84;21009;-71
2021/10/18 05:05:22;;;;;;;;;;;;;;;5.75;65.29;99840.81;1702519;83;21057;-71
2021/10/18 05:08:10;;;;;;;11.68;5.42;;;;;;;5.77;65.29;99838.72;1698799;84;20453;-71
2021/10/18 05:10:37;;;;;;;11.12;5.47;;;;;;;5.83;65.19;99849.39;1681704;84;21071;-71
2021/10/18 05:13:04;;;;;;;10.85;5.55;;;;;;;5.89;65.11;99844.41;1692652;84;20955;-71
2021/10/18 05:15:30;;;;;;;9.83;5.17;;;;;;;5.90;65.24;99846.06;1694658;84;21700;-72
2021/10/18 05:17:57;;;;;;;10.20;5.50;;;;;;;5.91;65.18;99849.59;1700297;83;21012;-71
2021/10/18 05:20:24;;;;;;;12.25;6.25;;;;;;;5.91;65.21;99849.59;1723812;82;21106;-72
2021/10/18 05:22:50;;;;;;;10.50;5.92;;;;;;;5.93;65.26;99854.20;1730367;82;21007;-71
2021/10/18 05:33:25;;;;;;;11.60;6.40;;;;;;;6.20;64.88;99857.20;1803552;79;22826;-70
2021/10/18 05:35:52;;;;;;;11.73;6.62;;;;;;;6.13;65.09;99860.58;1747221;80;21526;-70
2021/10/18 05:38:20;;;;;;;13.40;7.33;;;;;;;6.15;65.19;99855.21;1723655;83;21038;-70
2021/10/18 05:40:48;;;;;;;15.45;7.67;;;;;;;6.18;65.19;99860.13;1716450;81;21082;-72
2021/10/18 05:43:15;;;;;;;13.65;7.83;;;;;;;6.20;65.17;99855.30;1736176;81;21545;-73
2021/10/18 05:45:43;;;;;;;18.45;9.55;;;;;;;6.28;65.05;99856.80;1718055;82;20983;-72
2021/10/18 05:48:11;;;;;;;17.92;9.53;;;;;;;6.37;64.78;99858.08;1718487;83;21041;-72
2021/10/18 05:50:43;;;;;;;20.23;10.13;;;;;;;6.38;64.80;99859.17;1717281;82;21026;-71
2021/10/18 05:53:08;;;;;;;21.05;9.98;;;;;;;6.38;64.81;99861.88;1725677;81;21419;-73
2021/10/18 05:55:35;;;;;;;18.37;10.50;;;;;;;6.38;64.88;99872.69;1731140;83;21022;-71
2021/10/18 05:58:05;;;;;;;15.08;8.38;;;;;;;6.39;65.00;99873.52;1731290;83;21038;-72
2021/10/18 06:00:41;;;;;;;18.12;9.25;;;;;;;6.39;64.99;99874.34;1721304;82;21034;-73
2021/10/18 06:03:07;;;;;;;17.25;7.92;;;;;;;6.45;64.87;99879.30;1733572;82;21520;-73
2021/10/18 06:05:43;;;;;;;16.80;8.45;;;;;;;6.54;64.62;99875.69;1731579;82;21126;-75
2021/10/18 06:08:06;;;;;;;16.95;8.58;;;;;;;6.56;64.65;99882.49;1718512;82;21094;-70
2021/10/18 06:10:33;;;;;;;13.25;7.70;;;;;;;6.57;64.63;99885.50;1688480;82;21086;-70
2021/10/18 06:13:00;;;;;;;13.10;7.70;;;;;;;6.60;64.62;99884.18;1721473;82;21066;-70
2021/10/18 06:15:27;;;;;;;13.32;7.05;;;;;;;6.60;64.67;99885.00;1727445;81;21075;-69
2021/10/18 06:17:53;;;;;;;;;;;;;;;6.63;64.58;99887.75;1726207;83;21101;-74
2021/10/18 06:20:20;;;;;;;11.95;6.78;;;;;;;6.69;64.51;99889.51;1725634;82;20429;-73
2021/10/18 06:22:48;;;;;;;12.53;7.30;;;;;;;6.77;64.34;99895.86;1700700;84;21612;-73
2021/10/18 06:25:15;;;;;;;19.82;11.05;;;;;;;6.80;64.14;99894.84;1700559;84;21082;-72
2021/10/18 06:27:43;;;;;;;24.90;13.85;;;;;;;6.82;64.12;99891.38;1700568;84;21174;-72
2021/10/18 06:30:10;;;;;;;28.27;16.20;;;;;;;6.82;64.08;99896.78;1747055;81;21030;-71
2021/10/18 06:32:36;;;;;;;24.40;12.50;;;;;;;6.83;64.14;99893.03;1742213;82;21586;-75
2021/10/18 06:35:04;;;;;;;21.25;11.70;;;;;;;6.86;64.18;99898.47;1726927;82;21094;-74
2021/10/18 06:37:31;;;;;;;18.42;10.08;;;;;;;6.88;64.17;99906.62;1709843;83;21565;-72
2021/10/18 06:39:58;;;;;;;18.75;9.18;;;;;;;6.90;64.18;99913.98;1698423;81;21062;-72
2021/10/18 06:42:24;;;;;;;15.32;8.63;;;;;;;7.01;64.03;99912.28;1716179;82;20983;-74
2021/10/18 06:44:52;;;;;;;18.55;9.40;;;;;;;7.04;63.85;99903.67;1721127;82;21594;-73
2021/10/18 06:47:19;;;;;;;17.77;9.25;;;;;;;7.03;63.97;99908.78;1717381;82;21072;-74
2021/10/18 06:49:46;;;;;;;16.90;8.80;;;;;;;7.04;63.98;99906.91;1716942;82;20972;-72
2021/10/18 06:52:12;;;;;;;20.75;10.10;;;;;;;7.05;64.00;99914.77;1705582;83;21051;-74
2021/10/18 06:54:42;;;;;;;17.15;9.85;;;;;;;7.07;64.00;99905.05;1721148;82;21019;-70
2021/10/18 06:57:08;;;;;;;16.65;9.33;;;;;;;7.11;63.81;99915.69;1718561;82;21617;-72
2021/10/18 06:59:35;;;;;;;16.20;9.40;;;;;;;7.17;63.69;99916.05;1714885;82;21043;-73
2021/10/18 07:02:02;;;;;;;15.50;8.88;;;;;;;7.16;63.63;99923.35;1725915;81;21566;-72
2021/10/18 07:04:29;;;;;;;16.42;9.53;;;;;;;7.13;63.67;99914.90;1681998;82;21050;-73
2021/10/18 07:06:59;;;;;;;17.05;10.18;;;;;;;7.17;63.62;99914.70;1723951;81;21645;-71
2021/10/18 07:09:27;;;;;;;22.98;10.35;;;;;;;7.18;63.54;99914.47;1725708;82;20987;-72
2021/10/18 07:11:55;;;;;;;21.07;10.95;;;;;;;7.21;63.62;99905.85;1711316;82;21069;-71
2021/10/18 07:14:22;;;;;;;18.65;11.12;;;;;;;7.34;63.26;99910.93;1719049;82;21530;-70
2021/10/18 07:16:51;;;;;;;18.02;10.25;;;;;;;7.42;63.24;99913.23;1716959;82;21104;-74
2021/10/18 07:19:18;;;;;;;19.15;11.03;;;;;;;7.49;63.25;99913.89;1716964;82;21510;-74
2021/10/18 07:21:46;;;;;;;18.73;10.65;;;;;;;7.59;62.95;99917.81;1719930;82;21055;-69
2021/10/18 07:24:16;;;;;;;19.98;9.90;;;;;;;7.65;62.86;99914.92;1725739;82;21086;-70
2021/10/18 07:26:42;;;;;;;15.05;8.78;;;;;;;7.73;62.87;99913.69;1725787;81;21091;-71
2021/10/18 07:29:09;;;;;;;16.00;8.73;;;;;;;7.81;62.82;99906.50;1738597;82;21024;-72
2021/10/18 07:31:36;;;;;;;14.75;8.55;;;;;;;7.92;61.92;99904.22;1709995;82;21055;-74
2021/10/18 07:34:05;;;;;;;16.12;8.60;;;;;;;8.03;61.97;99905.17;1717174;82;21038;-73
2021/10/18 07:36:34;;;;;;;15.72;8.13;;;;;;;8.10;61.61;99902.56;1722956;82;21059;-72
2021/10/18 07:39:04;;;;;;;15.10;8.70;;;;;;;8.17;61.51;99896.42;1721943;82;21074;-74
2021/10/18 07:41:32;;;;;;;16.73;9.38;;;;;;;8.28;61.20;99902.29;1722891;82;21565;-72
2021/10/18 07:43:59;;;;;;;16.15;9.70;;;;;;;8.38;60.98;99895.63;1732543;82;21081;-72
2021/10/18 07:46:25;;;;;;;18.42;9.95;;;;;;;8.50;60.66;99902.28;1718058;81;21082;-74
2021/10/18 07:48:52;;;;;;;24.50;12.73;;;;;;;8.61;60.54;99902.65;1725884;82;21035;-73
2021/10/18 07:51:18;;;;;;;15.72;9.83;;;;;;;8.72;60.42;99899.51;1726115;83;21078;-73
2021/10/18 07:53:44;;;;;;;13.62;9.18;;;;;;;8.82;59.88;99903.71;1725502;82;20999;-73
2021/10/18 07:56:11;;;;;;;16.37;9.13;;;;;;;8.91;59.59;99904.34;1699834;84;21608;-70
2021/10/18 07:58:37;;;;;;;;;;;;;;;8.97;59.08;99900.59;1731908;82;21004;-70
2021/10/18 08:01:04;;;;;;;17.17;9.48;;;;;;;9.04;59.09;99896.84;1707056;81;20130;-74
2021/10/18 08:03:30;;;;;;;16.10;9.58;;;;;;;9.06;58.68;99902.84;1713409;82;21015;-75
2021/10/18 08:05:57;;;;;;;17.55;10.40;;;;;;;9.14;58.60;99901.03;1718589;82;21062;-72
2021/10/18 08:08:29;;;;;;;16.50;10.10;;;;;;;9.20;58.25;99907.59;1727709;82;21030;-71
2021/10/18 08:10:52;;;;;;;14.90;9.53;;;;;;;9.25;57.99;99900.01;1727139;81;21031;-73
2021/10/18 08:13:18;;;;;;;19.25;10.65;;;;;;;9.30;58.02;99898.70;1657840;85;21639;-72
2021/10/18 08:15:45;;;;;;;;;;;;;;;9.36;57.67;99903.91;1668796;85;21141;-70
2021/10/18 08:18:12;;;;;;;14.90;8.70;;;;;;;9.40;57.70;99909.12;1666320;85;20173;-71
2021/10/18 08:20:38;;;;;;;15.58;9.00;;;;;;;9.36;57.57;99906.63;1683512;84;21053;-70
2021/10/18 08:23:06;;;;;;;12.80;8.83;;;;;;;9.40;57.35;99905.04;1683875;85;21051;-68
2021/10/18 08:25:32;;;;;;;15.78;10.03;;;;;;;9.40;57.53;99898.25;1682385;85;21047;-70
2021/10/18 08:27:58;;;;;;;14.70;9.03;;;;;;;9.43;57.25;99901.80;1687379;85;21102;-69
2021/10/18 08:30:25;;;;;;;15.03;8.90;;;;;;;9.44;57.44;99895.30;1688036;83;21394;-70
2021/10/18 08:32:51;;;;;;;;;;;;;;;9.56;57.82;99899.19;1705311;84;21598;-70
2021/10/18 08:35:19;;;;;;;12.98;8.30;;;;;;;9.66;57.06;99898.44;1650714;85;20452;-72
2021/10/18 08:40:33;;;;;;;12.20;8.58;;;;;;;9.60;57.26;99894.05;1681584;84;21060;-70
2021/10/18 08:43:04;;;;;;;13.98;7.95;;;;;;;9.59;57.14;99895.13;1656506;85;21083;-70
2021/10/18 08:45:28;;;;;;;11.80;8.43;;;;;;;9.62;57.28;99893.23;1716988;83;21604;-70
2021/10/18 08:47:55;;;;;;;13.88;8.13;;;;;;;9.68;57.39;99893.00;1707669;82;21035;-71
2021/10/18 08:50:23;;;;;;;;;;;;;;;9.71;57.55;99893.02;1717930;82;21116;-71
2021/10/18 08:52:49;;;;;;;16.40;8.85;;;;;;;9.74;57.31;99893.31;1716598;83;20123;-71
2021/10/18 08:55:17;;;;;;;17.48;9.43;;;;;;;9.71;57.67;99887.04;1727453;81;21067;-70
2021/10/18 08:57:43;;;;;;;15.58;10.05;;;;;;;9.77;57.11;99887.37;1722452;82;21059;-72
2021/10/18 09:00:37;;;;;;;15.13;9.90;;;;;;;9.72;56.92;99885.97;1700395;83;21131;-72
2021/10/18 09:03:26;;;;;;;19.27;10.30;;;;;;;9.71;57.08;99884.32;1661275;85;21091;-73
2021/10/18 09:06:18;;;;;;;15.18;9.65;;;;;;;9.72;56.92;99891.94;1695798;84;21027;-73
2021/10/18 09:08:53;;;;;;;13.45;8.40;;;;;;;9.71;56.89;99882.14;1683231;84;21517;-70
2021/10/18 09:11:26;;;;;;;15.23;9.88;;;;;;;9.71;57.13;99892.48;1682986;84;21122;-70
2021/10/18 09:13:59;;;;;;;14.53;9.58;;;;;;;9.82;57.50;99887.92;1686672;84;21086;-72
2021/10/18 09:16:30;;;;;;;16.32;10.32;;;;;;;10.01;57.30;99887.77;1689199;84;21022;-72
2021/10/18 09:19:15;;;;;;;14.75;9.28;;;;;;;10.16;56.93;99888.42;1682629;85;21078;-70
2021/10/18 09:21:59;;;;;;;13.45;9.35;;;;;;;10.29;56.31;99887.39;1731995;81;21087;-72
2021/10/18 09:24:38;;;;;;;16.62;9.95;;;;;;;10.40;55.84;99885.52;1737237;82;21570;-70
2021/10/18 09:27:07;;;;;;;14.33;10.03;;;;;;;10.54;55.38;99878.48;1696956;82;21040;-70
2021/10/18 09:29:44;;;;;;;16.00;10.15;;;;;;;10.70;55.15;99876.64;1726992;82;21046;-71
2021/10/18 09:32:13;;;;;;;;;;;;;;;10.82;54.96;99871.73;1719090;83;21547;-72
2021/10/18 09:34:39;;;;;;;13.13;8.70;;;;;;;10.94;54.89;99870.41;1707228;83;20444;-71
2021/10/18 09:37:11;;;;;;;16.90;10.25;;;;;;;10.96;54.59;99870.95;1702941;82;21038;-71
2021/10/18 09:39:43;;;;;;;18.52;9.88;;;;;;;11.08;54.30;99867.15;1696457;83;21862;-70
2021/10/18 09:42:11;;;;;;;14.38;8.88;;;;;;;11.15;53.96;99867.16;1720240;82;21022;-71
2021/10/18 10:52:52;;;;;;;10.70;5.65;;;;;;;11.23;50.23;99820.84;1701988;83;21008;-71
2021/10/18 10:55:28;;;;;;;8.75;5.03;;;;;;;11.18;50.05;99823.55;1704288;83;21028;-70
2021/10/18 10:57:57;;;;;;;10.08;5.28;;;;;;;11.15;50.04;99820.84;1695069;83;21036;-72
2021/10/18 11:00:41;;;;;;;11.33;6.00;;;;;;;11.17;49.96;99824.09;1716257;83;21059;-71
2021/10/18 11:03:41;;;;;;;12.07;7.75;;;;;;;11.21;50.22;99821.09;1713326;82;21035;-69
2021/10/18 11:06:11;;;;;;;10.75;5.90;;;;;;;11.25;50.14;99822.19;1709372;82;21586;-71
2021/10/18 11:08:45;;;;;;;14.10;7.00;;;;;;;11.28;50.12;99816.72;1695755;83;20999;-70
2021/10/18 11:11:17;;;;;;;12.78;6.30;;;;;;;11.27;49.06;99819.17;1714439;82;21035;-70
2021/10/18 11:13:51;;;;;;;11.33;5.47;;;;;;;11.21;49.23;99819.73;1714692;83;21091;-70
2021/10/18 11:16:20;;;;;;;10.10;5.30;;;;;;;11.16;49.17;99818.36;1716034;83;21058;-70
2021/10/18 11:18:48;;;;;;;10.63;5.53;;;;;;;11.11;49.52;99818.92;1712766;82;20984;-68
2021/10/18 11:21:22;;;;;;;9.50;5.15;;;;;;;11.08;49.59;99817.57;1711307;83;21051;-69
2021/10/18 11:24:04;;;;;;;10.53;5.70;;;;;;;11.07;49.85;99815.92;1714249;83;21492;-72
2021/10/18 11:26:35;;;;;;;11.50;6.25;;;;;;;11.07;50.25;99816.47;1682304;83;21107;-71
2021/10/18 11:29:04;;;;;;;12.70;6.42;;;;;;;11.15;50.03;99813.20;1682738;85;21031;-71
2021/10/18 11:31:35;;;;;;;9.60;5.92;;;;;;;11.19;50.01;99813.75;1677556;83;21399;-70
2021/10/18 11:34:09;;;;;;;11.08;6.42;;;;;;;11.25;49.83;99818.09;1681557;83;21003;-73
2021/10/18 11:36:38;;;;;;;11.00;7.72;;;;;;;11.28;49.50;99812.09;1686940;84;21078;-72
2021/10/18 11:39:25;;;;;;;15.65;8.93;;;;;;;11.32;49.52;99811.00;1687295;83;21034;-67
2021/10/18 11:42:14;;;;;;;12.82;6.50;;;;;;;11.29;49.22;99800.66;1725120;82;21051;-68
2021/10/18 11:44:56;;;;;;;11.18;6.03;;;;;;;11.22;49.90;99805.02;1712104;82;21048;-71
2021/10/18 11:47:38;;;;;;;11.78;5.90;;;;;;;11.25;50.35;99805.02;1723606;82;20963;-71
2021/10/18 11:50:21;;;;;;;14.20;6.65;;;;;;;11.28;50.30;99810.73;1709016;82;21047;-70
2021/10/18 11:53:00;;;;;;;10.65;5.78;;;;;;;11.30;50.18;99807.17;1729056;82;21644;-71
2021/10/18 11:55:43;;;;;;;10.03;6.08;;;;;;;11.28;50.21;99801.73;1722413;82;21493;-71
2021/10/18 11:58:10;;;;;;;9.83;6.08;;;;;;;11.28;50.17;99802.56;1723581;82;21546;-70
2021/10/18 12:00:43;;;;;;;11.00;6.20;;;;;;;11.21;50.40;99804.75;1723599;82;21089;-72
2021/10/18 12:03:13;;;;;;;10.43;6.37;;;;;;;11.20;50.88;99806.37;1724559;82;21570;-69
2021/10/18 12:05:45;;;;;;;12.58;7.95;;;;;;;11.23;50.69;99806.64;1729724;81;21113;-70
2021/10/18 12:08:16;;;;;;;11.10;7.12;;;;;;;11.23;50.71;99810.73;1682441;83;21544;-71
2021/10/18 12:10:45;;;;;;;10.60;6.60;;;;;;;11.24;50.48;99805.56;1723006;82;21085;-68
2021/10/18 12:13:25;;;;;;;12.65;6.53;;;;;;;11.23;50.32;99803.91;1713009;83;20951;-71
2021/10/18 12:16:11;;;;;;;10.40;6.45;;;;;;;11.19;50.44;99802.03;1718062;82;21016;-71
2021/10/18 12:18:58;;;;;;;8.55;5.15;;;;;;;11.20;50.57;99804.47;1657358;85;22191;-69
2021/10/18 12:21:33;;;;;;;10.63;5.90;;;;;;;11.21;50.23;99799.84;1721145;82;21554;-68
2021/10/18 12:24:04;;;;;;;12.85;7.10;;;;;;;11.15;49.88;99800.41;1716594;82;21572;-69
2021/10/18 12:26:46;;;;;;;13.83;6.97;;;;;;;11.06;50.21;99802.56;1717608;82;21636;-67
2021/10/18 12:29:15;;;;;;;10.65;6.85;;;;;;;11.05;50.58;99797.69;1711590;82;20999;-69
2021/10/18 12:31:47;;;;;;;12.68;7.12;;;;;;;11.04;50.60;99802.03;1719445;82;21070;-70
2021/10/18 12:34:22;;;;;;;13.90;7.90;;;;;;;11.04;50.84;99801.49;1722393;82;21039;-69
2021/10/18 12:37:11;;;;;;;12.93;7.75;;;;;;;11.06;50.94;99796.58;1710933;82;21110;-71
2021/10/18 12:39:57;;;;;;;12.20;7.47;;;;;;;11.07;50.94;99798.77;1656140;86;21030;-70
2021/10/18 12:42:31;;;;;;;10.63;6.58;;;;;;;11.09;51.18;99802.84;1704981;83;21542;-72
2021/10/18 12:45:14;;;;;;;14.40;9.35;;;;;;;11.10;50.96;99800.94;1698607;83;21556;-70
2021/10/18 12:47:44;;;;;;;13.20;8.35;;;;;;;11.10;51.28;99800.39;1718268;83;21000;-71
2021/10/18 12:50:16;;;;;;;15.45;9.33;;;;;;;11.09;51.44;99798.75;1707673;83;21083;-69
2021/10/18 12:52:58;;;;;;;15.35;8.50;;;;;;;11.10;51.19;99804.48;1715736;82;21039;-70
2021/10/18 12:55:31;;;;;;;14.30;8.53;;;;;;;11.07;51.21;99808.30;1730537;81;21546;-69
2021/10/18 12:58:03;;;;;;;14.03;8.10;;;;;;;11.07;51.46;99802.84;1690919;83;20960;-71
2021/10/18 13:00:36;;;;;;;14.20;7.92;;;;;;;11.09;51.48;99809.64;1707198;82;21079;-71
2021/10/18 13:03:14;;;;;;;13.15;8.88;;;;;;;11.10;51.15;99807.20;1715420;83;21031;-73